Time;durP1;ratioP1;P1;durP2;ratioP2;P2;SDS_P1;SDS_P2;PMS_P1;PMS_P2;Temp;Humidity;BMP_temperature;BMP_pressure;BME280_temperature;BME280_humidity;BME280_pressure;Samples;Min_cycle;Max_cycle;Signal;HPM_P1;HPM_P2
2023/05/09 00:02:08;;;;;;;32.60;28.05;;;;;;;14.60;100.00;101693.53;4980277;28;20031;-63
2023/05/09 00:04:34;;;;;;;29.63;26.42;;;;;;;14.59;100.00;101692.69;4985858;28;20030;-63
2023/05/09 00:07:00;;;;;;;29.35;26.15;;;;;;;14.58;100.00;101682.72;4971042;28;20046;-63
2023/05/09 00:09:25;;;;;;;31.25;27.90;;;;;;;14.57;100.00;101688.50;4968847;28;20039;-63
2023/05/09 00:11:51;;;;;;;30.75;27.45;;;;;;;14.56;100.00;101681.28;4983293;28;20041;-63
2023/05/09 00:14:17;;;;;;;29.67;26.55;;;;;;;14.53;100.00;101677.91;4983794;28;20030;-63
2023/05/09 00:16:45;;;;;;;28.48;25.48;;;;;;;14.52;100.00;101679.00;4981068;28;20522;-62
2023/05/09 00:19:11;;;;;;;28.45;25.45;;;;;;;14.51;100.00;101673.72;4976191;28;20359;-63
2023/05/09 00:21:37;;;;;;;28.67;25.58;;;;;;;14.54;100.00;101674.06;4973677;28;20026;-63
2023/05/09 00:24:02;;;;;;;28.67;25.58;;;;;;;14.53;100.00;101677.06;4984653;28;20038;-63
2023/05/09 00:26:28;;;;;;;29.40;25.88;;;;;;;14.56;100.00;101675.75;4984886;28;20030;-63
2023/05/09 00:28:53;;;;;;;28.48;25.42;;;;;;;14.58;100.00;101684.66;4986972;28;20382;-63
2023/05/09 00:31:19;;;;;;;29.40;26.40;;;;;;;14.52;100.00;101681.75;4984848;28;20038;-63
2023/05/09 00:33:44;;;;;;;28.70;25.67;;;;;;;14.51;100.00;101669.00;4976372;28;20023;-63
2023/05/09 00:36:10;;;;;;;26.88;23.98;;;;;;;14.50;100.00;101667.34;4978049;28;20031;-63
2023/05/09 00:38:35;;;;;;;27.05;24.13;;;;;;;14.50;100.00;101664.56;4967923;28;20422;-63
2023/05/09 00:41:00;;;;;;;27.05;24.15;;;;;;;14.47;100.00;101659.50;4967748;28;20034;-63
2023/05/09 00:43:26;;;;;;;25.80;23.20;;;;;;;14.44;100.00;101659.94;4974278;28;20042;-63
2023/05/09 00:45:51;;;;;;;24.33;21.75;;;;;;;14.47;100.00;101661.41;4981032;28;20028;-63
2023/05/09 00:48:16;;;;;;;25.77;22.90;;;;;;;14.49;100.00;101662.88;4987480;28;20057;-63
2023/05/09 00:50:42;;;;;;;24.88;22.35;;;;;;;14.50;100.00;101647.16;4981751;28;20027;-63
2023/05/09 00:53:08;;;;;;;24.60;22.08;;;;;;;14.49;100.00;101649.03;4970198;28;20034;-62
2023/05/09 00:55:34;;;;;;;23.90;21.40;;;;;;;14.49;100.00;101653.72;4984396;28;20670;-63
2023/05/09 00:58:00;;;;;;;23.13;20.65;;;;;;;14.49;100.00;101660.09;4986620;28;20058;-62
2023/05/09 01:00:25;;;;;;;21.70;19.40;;;;;;;14.52;100.00;101656.03;4978994;28;20118;-63
2023/05/09 01:02:53;;;;;;;21.38;19.08;;;;;;;14.51;100.00;101654.34;4986812;28;20040;-62
2023/05/09 01:05:20;;;;;;;;;;;;;;;14.61;100.00;101648.25;4983657;28;20041;-63
2023/05/09 01:07:59;;;;;;;20.55;18.35;;;;;;;14.49;100.00;101640.75;4978831;28;20419;-62
2023/05/09 01:11:02;;;;;;;21.13;18.45;;;;;;;14.54;100.00;101638.13;4971017;28;20031;-63
2023/05/09 01:13:40;;;;;;;20.45;18.30;;;;;;;14.54;100.00;101631.75;4976502;28;20034;-63
2023/05/09 01:16:14;;;;;;;20.30;18.30;;;;;;;14.49;100.00;101629.69;4986326;28;20059;-63
2023/05/09 01:18:55;;;;;;;19.83;17.75;;;;;;;14.49;100.00;101632.47;4987149;28;20153;-63
2023/05/09 01:21:26;;;;;;;19.17;17.17;;;;;;;14.47;100.00;101614.41;4976437;28;20041;-63
2023/05/09 01:24:13;;;;;;;19.48;17.48;;;;;;;14.44;100.00;101612.94;4985714;28;20041;-63
2023/05/09 01:26:59;;;;;;;19.13;17.13;;;;;;;14.45;100.00;101616.59;4986980;28;20520;-63
2023/05/09 01:29:42;;;;;;;18.77;16.88;;;;;;;14.45;100.00;101594.47;4980090;28;20053;-63
2023/05/09 01:32:14;;;;;;;19.15;17.15;;;;;;;14.43;100.00;101593.84;4977293;28;20038;-63
2023/05/09 01:34:42;;;;;;;18.73;16.83;;;;;;;14.41;100.00;101596.03;4991857;28;20053;-63
2023/05/09 01:37:09;;;;;;;18.40;16.52;;;;;;;14.38;100.00;101591.78;4989482;28;20034;-63
2023/05/09 01:39:38;;;;;;;17.58;15.77;;;;;;;14.38;100.00;101597.31;4991483;28;20019;-63
2023/05/09 01:42:07;;;;;;;17.90;15.70;;;;;;;14.39;100.00;101593.47;4989040;28;20033;-63
2023/05/09 01:44:41;;;;;;;18.30;16.40;;;;;;;14.39;100.00;101585.19;4985992;28;20081;-63
2023/05/09 01:47:08;;;;;;;17.42;15.63;;;;;;;14.36;100.00;101584.84;4988923;28;20667;-62
2023/05/09 01:49:35;;;;;;;17.73;15.93;;;;;;;14.35;100.00;101578.47;4984686;28;20038;-63
2023/05/09 01:52:06;;;;;;;17.05;15.25;;;;;;;14.34;100.00;101571.25;4989111;28;20073;-63
2023/05/09 01:54:33;;;;;;;17.35;15.52;;;;;;;14.33;100.00;101568.72;4990579;28;20030;-63
2023/05/09 01:56:59;;;;;;;17.33;15.20;;;;;;;14.30;100.00;101563.69;4989990;28;20038;-63
2023/05/09 01:59:26;;;;;;;16.60;14.80;;;;;;;14.25;100.00;101556.94;4989732;28;20045;-62
2023/05/09 02:01:54;;;;;;;16.25;14.57;;;;;;;14.22;100.00;101562.94;4990167;28;20066;-63
2023/05/09 02:04:20;;;;;;;17.35;15.55;;;;;;;14.24;100.00;101555.28;4989344;28;20655;-62
2023/05/09 02:06:50;;;;;;;17.70;15.85;;;;;;;14.22;100.00;101560.19;4984071;28;20379;-63
2023/05/09 02:09:17;;;;;;;16.40;14.63;;;;;;;14.20;100.00;101559.59;4977219;28;20030;-63
2023/05/09 02:11:42;;;;;;;17.45;15.65;;;;;;;14.20;100.00;101558.75;4976601;28;20031;-62
2023/05/09 02:14:08;;;;;;;17.33;15.60;;;;;;;14.18;100.00;101558.13;4978075;28;20045;-62
2023/05/09 02:16:33;;;;;;;18.25;15.85;;;;;;;14.15;100.00;101558.63;4985874;28;20019;-63
2023/05/09 02:18:59;;;;;;;16.95;15.15;;;;;;;14.10;100.00;101559.31;4974516;28;20026;-63
2023/05/09 02:21:24;;;;;;;16.33;14.65;;;;;;;14.11;100.00;101557.41;4988678;28;20037;-63
2023/05/09 02:23:50;;;;;;;17.23;15.43;;;;;;;14.12;100.00;101559.06;4989683;28;20030;-63
2023/05/09 02:26:15;;;;;;;17.05;15.25;;;;;;;14.07;100.00;101559.78;4989664;28;20026;-63
2023/05/09 02:28:42;;;;;;;17.05;15.43;;;;;;;14.06;100.00;101565.56;4991381;28;20026;-62
2023/05/09 02:31:11;;;;;;;17.02;15.32;;;;;;;14.02;100.00;101563.25;4985803;28;20049;-63
2023/05/09 02:33:38;;;;;;;16.92;15.25;;;;;;;14.00;100.00;101562.66;5023751;22;20738;-61
2023/05/09 02:36:04;;;;;;;17.05;15.25;;;;;;;14.01;100.00;101569.84;4987170;28;20037;-63
2023/05/09 02:38:30;;;;;;;17.40;15.60;;;;;;;13.98;100.00;101570.31;4988751;28;20022;-63
2023/05/09 02:40:55;;;;;;;17.30;15.52;;;;;;;13.98;100.00;101572.25;4988063;28;20038;-63
2023/05/09 02:43:21;;;;;;;16.85;15.15;;;;;;;13.94;100.00;101571.91;4996034;28;20058;-63
2023/05/09 02:45:46;;;;;;;17.55;15.75;;;;;;;13.95;100.00;101570.81;5002146;28;20105;-62
2023/05/09 02:48:11;;;;;;;17.40;15.55;;;;;;;13.90;100.00;101561.56;4989103;28;20084;-62
2023/05/09 02:50:38;;;;;;;17.45;15.65;;;;;;;13.89;100.00;101560.72;4993329;28;20036;-61
2023/05/09 02:53:04;;;;;;;17.85;16.05;;;;;;;13.88;100.00;101552.63;5007055;28;20684;-63
2023/05/09 02:55:29;;;;;;;17.85;15.95;;;;;;;13.84;100.00;101543.13;5008393;28;20018;-63
2023/05/09 02:57:54;;;;;;;16.67;15.00;;;;;;;13.85;100.00;101544.84;5008361;28;20022;-62
2023/05/09 03:00:21;;;;;;;16.60;14.98;;;;;;;13.79;100.00;101541.13;5006189;28;20041;-63
2023/05/09 03:02:46;;;;;;;16.92;15.15;;;;;;;13.76;100.00;101533.28;5005546;28;20110;-62
2023/05/09 03:05:11;;;;;;;16.48;14.73;;;;;;;13.76;100.00;101530.53;4991420;28;20161;-63
2023/05/09 03:07:37;;;;;;;17.92;16.13;;;;;;;13.70;100.00;101518.50;5007020;28;20026;-63
2023/05/09 03:10:02;;;;;;;17.88;16.05;;;;;;;13.73;100.00;101523.53;4989662;28;20042;-63
2023/05/09 03:12:27;;;;;;;17.17;15.57;;;;;;;13.68;100.00;101523.41;4987818;28;20121;-62
2023/05/09 03:14:53;;;;;;;17.35;14.93;;;;;;;13.66;100.00;101524.72;4987612;28;20153;-62
2023/05/09 03:17:20;;;;;;;17.05;15.25;;;;;;;13.61;100.00;101514.38;4985101;28;20022;-63
2023/05/09 03:19:47;;;;;;;17.60;15.70;;;;;;;13.56;100.00;101518.94;4987884;28;20053;-63
2023/05/09 03:22:12;;;;;;;17.02;15.30;;;;;;;13.54;100.00;101512.81;4987243;28;20026;-63
2023/05/09 03:24:37;;;;;;;17.75;15.95;;;;;;;13.51;100.00;101514.13;5005088;28;20053;-63
2023/05/09 03:27:03;;;;;;;17.92;16.02;;;;;;;13.53;100.00;101511.09;4998182;28;20030;-63
2023/05/09 03:29:28;;;;;;;17.48;15.77;;;;;;;13.49;100.00;101517.13;5002656;28;20027;-62
2023/05/09 03:31:53;;;;;;;18.67;16.77;;;;;;;13.48;100.00;101509.91;4996415;28;20037;-63
2023/05/09 03:34:18;;;;;;;16.20;14.57;;;;;;;13.45;100.00;101507.63;5007528;28;20707;-63
2023/05/09 03:36:44;;;;;;;17.98;15.73;;;;;;;13.43;100.00;101507.03;4989682;28;20035;-63
2023/05/09 03:39:09;;;;;;;18.80;16.92;;;;;;;13.41;100.00;101511.91;4986950;28;20076;-63
2023/05/09 03:41:35;;;;;;;18.20;16.30;;;;;;;13.44;100.00;101507.84;5002141;28;20030;-63
2023/05/09 03:44:01;;;;;;;18.77;16.85;;;;;;;13.48;100.00;101511.81;4995121;28;20106;-63
2023/05/09 03:46:27;;;;;;;20.20;18.17;;;;;;;13.45;100.00;101499.34;4994286;28;20041;-63
2023/05/09 03:48:52;;;;;;;19.00;17.02;;;;;;;13.46;100.00;101500.19;5002760;28;20030;-62
2023/05/09 03:51:17;;;;;;;19.15;17.25;;;;;;;13.43;100.00;101495.97;4986301;28;20474;-63
2023/05/09 03:53:44;;;;;;;20.05;17.95;;;;;;;13.44;100.00;101492.13;4987484;28;20033;-62
2023/05/09 03:56:10;;;;;;;21.97;19.77;;;;;;;13.47;100.00;101497.16;4997629;28;20384;-62
2023/05/09 03:58:35;;;;;;;20.58;18.55;;;;;;;13.44;100.00;101492.13;5003775;28;20026;-62
2023/05/09 04:01:01;;;;;;;20.77;18.52;;;;;;;13.44;100.00;101486.63;4999044;28;20041;-63
2023/05/09 04:03:27;;;;;;;20.38;18.38;;;;;;;13.41;100.00;101486.25;4988311;28;20500;-63
2023/05/09 04:05:52;;;;;;;20.55;18.55;;;;;;;13.37;100.00;101480.34;4987041;28;20037;-62
2023/05/09 04:08:18;;;;;;;20.65;18.52;;;;;;;13.40;100.00;101476.28;4983840;28;20124;-63
2023/05/09 04:10:43;;;;;;;22.35;18.58;;;;;;;13.39;100.00;101472.69;5005551;28;20175;-63
2023/05/09 04:13:08;;;;;;;20.48;18.52;;;;;;;13.38;100.00;101471.00;5005748;28;20145;-63
2023/05/09 04:15:34;;;;;;;19.30;17.30;;;;;;;13.39;100.00;101467.16;5004300;28;20069;-63
2023/05/09 04:17:59;;;;;;;20.23;18.13;;;;;;;13.39;100.00;101460.81;4988127;28;20035;-62
2023/05/09 04:20:24;;;;;;;20.38;17.58;;;;;;;13.38;100.00;101462.72;4994280;28;20121;-62
2023/05/09 04:22:49;;;;;;;19.05;16.70;;;;;;;13.35;100.00;101454.91;4987624;28;20113;-63
2023/05/09 04:25:15;;;;;;;18.97;17.07;;;;;;;13.35;100.00;101454.91;4986685;28;20524;-63
2023/05/09 04:27:41;;;;;;;20.48;18.38;;;;;;;13.36;100.00;101455.75;4984284;28;20288;-63
2023/05/09 04:30:07;;;;;;;19.40;17.33;;;;;;;13.36;100.00;101456.59;4999075;28;20069;-62
2023/05/09 04:32:32;;;;;;;18.52;16.63;;;;;;;13.38;100.00;101456.34;4975089;28;20030;-62
2023/05/09 04:34:57;;;;;;;18.75;16.85;;;;;;;13.38;100.00;101456.34;5006993;28;20052;-63
2023/05/09 04:37:23;;;;;;;18.17;16.30;;;;;;;13.39;100.00;101467.16;5002955;28;20057;-62
2023/05/09 04:39:48;;;;;;;18.27;16.38;;;;;;;13.41;100.00;101459.47;4993811;28;20041;-63
2023/05/09 04:42:13;;;;;;;19.17;16.38;;;;;;;13.42;100.00;101455.66;5004825;28;20101;-63
2023/05/09 04:44:38;;;;;;;17.60;15.80;;;;;;;13.46;100.00;101448.59;5006152;28;20046;-63
2023/05/09 04:47:04;;;;;;;17.13;15.48;;;;;;;13.48;100.00;101453.84;4993951;28;20158;-61
2023/05/09 04:49:29;;;;;;;17.33;15.73;;;;;;;13.51;100.00;101458.91;4991210;28;20344;-63
2023/05/09 04:51:55;;;;;;;17.52;15.80;;;;;;;13.53;100.00;101440.19;5005423;28;20038;-63
2023/05/09 04:54:20;;;;;;;16.63;14.88;;;;;;;13.56;100.00;101439.72;5007108;28;20113;-63
2023/05/09 04:56:45;;;;;;;18.00;15.65;;;;;;;13.59;100.00;101428.22;4993234;28;20080;-63
2023/05/09 04:59:10;;;;;;;16.88;15.18;;;;;;;13.63;100.00;101434.09;4997397;28;20041;-63
2023/05/09 05:01:36;;;;;;;17.75;15.90;;;;;;;13.67;100.00;101440.84;4995147;28;20129;-62
2023/05/09 05:04:01;;;;;;;16.33;14.70;;;;;;;13.71;100.00;101437.38;4983101;28;20410;-63
2023/05/09 05:06:26;;;;;;;15.85;14.20;;;;;;;13.74;100.00;101434.16;4993593;28;20030;-63
2023/05/09 05:08:52;;;;;;;17.27;15.48;;;;;;;13.76;100.00;101422.84;5001707;28;20038;-63
2023/05/09 05:11:17;;;;;;;16.42;14.82;;;;;;;13.77;100.00;101417.09;4985430;28;20026;-63
2023/05/09 05:13:43;;;;;;;16.65;14.90;;;;;;;13.82;100.00;101415.53;4985228;28;20041;-63
2023/05/09 05:16:08;;;;;;;15.98;14.38;;;;;;;13.81;100.00;101414.69;5003103;28;20129;-63
2023/05/09 05:18:33;;;;;;;15.90;14.20;;;;;;;13.82;100.00;101402.56;5005482;28;20022;-63
2023/05/09 05:20:59;;;;;;;15.85;14.23;;;;;;;13.80;100.00;101403.91;4983692;28;20165;-62
2023/05/09 05:23:24;;;;;;;16.48;14.85;;;;;;;13.79;100.00;101391.16;4997283;28;20034;-63
2023/05/09 05:25:49;;;;;;;16.15;14.55;;;;;;;13.80;100.00;101385.41;4998732;28;20027;-63
2023/05/09 05:28:15;;;;;;;16.67;14.88;;;;;;;13.83;100.00;101390.44;4987434;28;20034;-63
2023/05/09 05:30:40;;;;;;;17.50;15.75;;;;;;;13.83;100.00;101381.31;4989085;28;20084;-63
2023/05/09 05:33:05;;;;;;;16.52;15.02;;;;;;;13.83;100.00;101389.59;4993331;28;20527;-63
2023/05/09 05:35:31;;;;;;;16.52;14.82;;;;;;;13.87;100.00;101386.13;4990349;28;20144;-63
2023/05/09 05:37:56;;;;;;;16.45;14.75;;;;;;;13.90;100.00;101388.41;5002540;28;20026;-63
2023/05/09 05:40:21;;;;;;;16.65;15.02;;;;;;;13.98;100.00;101381.69;4992683;28;20033;-63
2023/05/09 05:42:47;;;;;;;15.82;14.20;;;;;;;14.05;100.00;101373.28;4999580;28;20030;-63
2023/05/09 05:45:12;;;;;;;16.23;14.63;;;;;;;14.13;100.00;101376.50;5004431;28;20026;-63
2023/05/09 05:47:37;;;;;;;15.95;14.35;;;;;;;14.20;100.00;101371.72;4985651;28;20050;-63
2023/05/09 05:50:07;;;;;;;15.73;14.13;;;;;;;14.21;100.00;101370.63;4984509;28;20254;-63
2023/05/09 05:52:32;;;;;;;15.90;14.35;;;;;;;14.27;100.00;101371.56;4992464;28;20038;-63
2023/05/09 05:54:57;;;;;;;16.05;13.70;;;;;;;14.33;100.00;101369.75;5000194;28;20037;-63
2023/05/09 05:57:23;;;;;;;15.68;13.93;;;;;;;14.34;100.00;101372.28;4989238;28;20121;-63
2023/05/09 05:59:49;;;;;;;15.75;14.10;;;;;;;14.44;100.00;101364.22;4985733;28;20037;-62
2023/05/09 06:02:16;;;;;;;17.20;15.35;;;;;;;14.50;100.00;101363.28;4986360;28;20113;-63
2023/05/09 06:04:42;;;;;;;15.20;13.70;;;;;;;14.59;100.00;101360.13;4991445;28;20023;-62
2023/05/09 06:07:08;;;;;;;14.57;13.18;;;;;;;14.60;100.00;101356.25;4986607;28;20047;-63
2023/05/09 06:09:33;;;;;;;15.98;14.13;;;;;;;14.60;100.00;101353.50;5001370;28;20497;-63
2023/05/09 06:11:58;;;;;;;14.95;13.32;;;;;;;14.65;100.00;101348.94;4984191;28;20093;-63
2023/05/09 06:14:24;;;;;;;14.68;13.18;;;;;;;14.68;100.00;101355.88;4986695;28;20019;-62
2023/05/09 06:16:50;;;;;;;14.85;13.40;;;;;;;14.68;100.00;101347.59;4990225;28;20018;-63
2023/05/09 06:19:16;;;;;;;14.70;13.23;;;;;;;14.70;100.00;101340.75;4990129;28;20041;-63
2023/05/09 06:21:41;;;;;;;14.30;12.80;;;;;;;14.68;100.00;101342.06;4988180;28;20039;-63
2023/05/09 06:24:06;;;;;;;14.10;12.80;;;;;;;14.70;100.00;101334.34;4989671;28;20100;-62
2023/05/09 06:26:32;;;;;;;14.20;12.90;;;;;;;14.74;100.00;101330.03;5003826;28;20317;-63
2023/05/09 06:28:57;;;;;;;14.20;12.40;;;;;;;14.70;100.00;101334.34;5009445;28;20037;-62
2023/05/09 06:31:22;;;;;;;14.75;13.30;;;;;;;14.69;100.00;101341.81;4989562;28;20112;-63
2023/05/09 06:33:48;;;;;;;14.05;12.65;;;;;;;14.73;100.00;101333.88;5009459;28;20129;-62
2023/05/09 06:36:13;;;;;;;13.50;12.20;;;;;;;14.78;100.00;101334.81;5008583;28;20030;-62
2023/05/09 06:38:38;;;;;;;13.73;12.32;;;;;;;14.84;100.00;101329.38;5009661;28;20346;-63
2023/05/09 06:41:04;;;;;;;14.05;12.65;;;;;;;14.88;100.00;101330.56;4990685;28;20041;-63
2023/05/09 06:43:29;;;;;;;13.85;12.45;;;;;;;14.86;100.00;101325.28;4987793;28;20061;-62
2023/05/09 06:45:55;;;;;;;13.02;11.75;;;;;;;14.84;100.00;101326.63;4989288;28;20481;-62
2023/05/09 06:48:22;;;;;;;13.57;12.18;;;;;;;14.83;100.00;101320.25;4990146;28;20030;-63
2023/05/09 06:50:48;;;;;;;13.55;12.25;;;;;;;14.84;100.00;101313.63;4986495;28;20041;-63
2023/05/09 06:53:14;;;;;;;13.23;11.93;;;;;;;14.91;100.00;101317.09;4989070;28;20039;-63
2023/05/09 06:55:39;;;;;;;14.82;12.68;;;;;;;14.95;100.00;101312.75;4986501;28;20026;-63
2023/05/09 06:58:05;;;;;;;13.30;11.95;;;;;;;15.05;100.00;101309.31;4998464;28;20037;-62
2023/05/09 07:00:30;;;;;;;14.13;12.63;;;;;;;15.12;100.00;101303.63;4986778;28;20035;-63
2023/05/09 07:02:55;;;;;;;13.55;12.07;;;;;;;15.20;100.00;101300.44;4988910;28;20018;-63
2023/05/09 07:05:20;;;;;;;14.15;12.48;;;;;;;15.27;100.00;101298.34;4983677;28;20816;-63
2023/05/09 07:07:46;;;;;;;14.20;12.80;;;;;;;15.36;100.00;101298.75;4985571;28;20034;-63
2023/05/09 07:10:11;;;;;;;13.68;12.38;;;;;;;15.37;100.00;101293.00;4980068;28;20610;-62
2023/05/09 07:12:36;;;;;;;13.05;11.85;;;;;;;15.49;100.00;101298.44;4980745;28;20918;-62
2023/05/09 07:15:02;;;;;;;13.48;12.18;;;;;;;15.53;100.00;101292.13;4981828;28;20038;-63
2023/05/09 07:17:28;;;;;;;12.50;11.20;;;;;;;15.62;100.00;101289.78;4990810;28;20472;-63
2023/05/09 07:19:54;;;;;;;12.52;11.32;;;;;;;15.71;100.00;101284.66;4993695;28;20084;-63
2023/05/09 07:22:20;;;;;;;11.35;10.25;;;;;;;15.71;100.00;101288.31;4987357;28;20030;-62
2023/05/09 07:24:46;;;;;;;11.00;9.85;;;;;;;15.69;100.00;101286.88;4988791;28;20058;-63
2023/05/09 07:27:11;;;;;;;11.95;10.73;;;;;;;15.63;100.00;101276.78;4983264;28;20034;-63
2023/05/09 07:29:36;;;;;;;10.68;9.57;;;;;;;15.56;100.00;101282.47;4983036;28;20057;-63
2023/05/09 07:32:01;;;;;;;10.43;9.15;;;;;;;15.52;100.00;101276.63;4988031;28;20502;-63
2023/05/09 07:34:27;;;;;;;11.23;9.30;;;;;;;15.50;100.00;101277.94;4983775;28;20089;-63
2023/05/09 07:36:52;;;;;;;9.73;8.73;;;;;;;15.48;100.00;101275.44;4985540;28;20034;-63
2023/05/09 07:39:17;;;;;;;9.98;8.82;;;;;;;15.45;100.00;101280.66;4986783;28;20507;-63
2023/05/09 07:41:43;;;;;;;9.63;8.63;;;;;;;15.43;100.00;101271.75;4984493;28;20077;-63
2023/05/09 07:44:08;;;;;;;10.98;9.27;;;;;;;15.38;100.00;101280.81;4988912;28;20045;-63
2023/05/09 07:46:36;;;;;;;9.98;8.98;;;;;;;15.40;100.00;101275.88;4990966;28;20018;-63
2023/05/09 07:49:02;;;;;;;10.77;9.07;;;;;;;15.41;100.00;101280.34;4996444;28;20026;-63
2023/05/09 07:51:27;;;;;;;10.20;8.90;;;;;;;15.39;100.00;101274.19;4993891;28;20034;-63
2023/05/09 07:53:54;;;;;;;9.65;8.45;;;;;;;15.34;100.00;101279.66;4987703;28;20048;-63
2023/05/09 07:56:21;;;;;;;9.60;8.68;;;;;;;15.32;100.00;101279.91;4992096;28;20026;-63
2023/05/09 07:58:46;;;;;;;8.98;8.07;;;;;;;15.28;100.00;101273.19;4989220;28;20031;-62
2023/05/09 08:01:12;;;;;;;10.50;9.27;;;;;;;15.19;100.00;101265.56;4986697;28;20408;-62
2023/05/09 08:03:37;;;;;;;9.67;8.07;;;;;;;15.18;100.00;101261.94;4980983;28;20042;-63
2023/05/09 08:06:03;;;;;;;10.45;8.75;;;;;;;15.19;100.00;101262.78;4983664;28;20289;-63
2023/05/09 08:08:28;;;;;;;9.48;8.48;;;;;;;15.19;100.00;101257.25;4987425;28;20023;-63
2023/05/09 08:10:54;;;;;;;8.40;7.35;;;;;;;15.18;100.00;101250.06;4986500;28;20042;-63
2023/05/09 08:13:21;;;;;;;8.25;7.45;;;;;;;15.08;100.00;101255.41;4983819;28;20424;-63
2023/05/09 08:15:46;;;;;;;10.27;7.43;;;;;;;14.99;100.00;101249.44;4995074;28;20031;-63
2023/05/09 08:18:11;;;;;;;8.38;7.47;;;;;;;14.97;100.00;101244.19;4990046;28;20421;-62
2023/05/09 08:20:36;;;;;;;8.88;7.90;;;;;;;14.95;100.00;101243.59;4984254;28;20042;-62
2023/05/09 08:23:02;;;;;;;8.02;7.22;;;;;;;14.93;100.00;101240.22;4990508;28;20121;-63
2023/05/09 08:25:28;;;;;;;8.27;7.10;;;;;;;14.94;100.00;101241.91;4974413;28;20030;-63
2023/05/09 08:27:53;;;;;;;7.97;6.80;;;;;;;14.97;100.00;101232.28;4968376;28;20041;-63
2023/05/09 08:30:19;;;;;;;7.97;7.18;;;;;;;14.95;100.00;101226.13;4968933;28;20026;-63
2023/05/09 08:32:44;;;;;;;8.15;7.30;;;;;;;14.94;100.00;101224.47;4998865;28;20022;-63
2023/05/09 08:35:10;;;;;;;8.18;7.38;;;;;;;14.92;100.00;101226.66;5007500;28;20098;-62
2023/05/09 08:37:36;;;;;;;8.20;7.40;;;;;;;14.89;100.00;101227.97;5006673;28;20088;-62
2023/05/09 08:40:05;;;;;;;9.13;7.90;;;;;;;14.96;100.00;101220.38;5004715;28;20050;-63
2023/05/09 08:42:33;;;;;;;8.70;7.80;;;;;;;15.11;100.00;101214.25;5003814;28;20137;-62
2023/05/09 08:45:00;;;;;;;8.70;7.70;;;;;;;15.22;100.00;101210.56;5007141;28;20090;-63
2023/05/09 08:47:27;;;;;;;8.55;7.68;;;;;;;15.35;100.00;101214.88;5007510;28;20026;-63
2023/05/09 08:49:52;;;;;;;7.10;6.40;;;;;;;15.36;100.00;101211.06;5007373;28;20022;-62
2023/05/09 08:52:19;;;;;;;6.43;5.72;;;;;;;15.36;100.00;101210.19;4997762;28;20466;-62
2023/05/09 08:54:45;;;;;;;7.47;5.75;;;;;;;15.38;100.00;101199.72;4985056;28;20023;-63
2023/05/09 08:57:10;;;;;;;7.38;6.55;;;;;;;15.38;100.00;101199.72;4986204;28;20080;-63
2023/05/09 08:59:37;;;;;;;7.90;6.90;;;;;;;15.30;100.00;101206.50;4977907;28;20026;-63
2023/05/09 09:02:06;;;;;;;7.45;6.75;;;;;;;15.25;100.00;101200.91;4980488;28;20085;-63
2023/05/09 09:04:31;;;;;;;8.10;6.55;;;;;;;15.21;100.00;101202.53;4987288;28;20110;-63
2023/05/09 09:06:58;;;;;;;8.82;6.90;;;;;;;15.17;100.00;101207.72;4983707;28;20034;-63
2023/05/09 09:09:24;;;;;;;6.90;6.18;;;;;;;15.18;100.00;101198.31;4987571;28;20049;-63
2023/05/09 09:11:52;;;;;;;7.47;6.65;;;;;;;15.20;100.00;101198.88;4987317;28;20113;-63
2023/05/09 09:14:24;;;;;;;7.20;6.47;;;;;;;15.23;100.00;101194.78;4987481;28;20126;-63
2023/05/09 09:16:51;;;;;;;7.05;6.35;;;;;;;15.30;100.00;101195.44;4986168;28;20038;-63
2023/05/09 09:19:17;;;;;;;7.68;6.88;;;;;;;15.23;100.00;101192.88;4986930;28;20026;-63
2023/05/09 09:21:46;;;;;;;6.60;5.28;;;;;;;15.18;100.00;101189.19;4986441;28;20030;-63
2023/05/09 09:24:12;;;;;;;6.53;5.40;;;;;;;15.18;100.00;101191.94;4987397;28;20428;-63
2023/05/09 09:26:55;;;;;;;7.30;6.05;;;;;;;15.24;100.00;101183.47;4987528;28;20381;-62
2023/05/09 09:29:21;;;;;;;7.28;5.63;;;;;;;15.22;100.00;101182.88;5004317;28;20125;-63
2023/05/09 09:31:52;;;;;;;6.65;5.95;;;;;;;15.21;100.00;101184.00;4977228;28;20113;-62
2023/05/09 09:34:20;;;;;;;7.78;6.35;;;;;;;15.28;100.00;101179.09;4983700;28;20042;-63
2023/05/09 09:36:47;;;;;;;7.45;6.28;;;;;;;15.24;100.00;101179.84;4986543;28;20122;-63
2023/05/09 09:39:13;;;;;;;6.97;5.93;;;;;;;15.12;100.00;101184.66;5002195;28;20030;-63
2023/05/09 09:41:39;;;;;;;6.47;4.90;;;;;;;15.04;100.00;101175.69;4986279;28;20690;-63
2023/05/09 09:44:08;;;;;;;5.95;4.53;;;;;;;15.01;100.00;101178.97;4996891;28;20030;-63
2023/05/09 09:46:45;;;;;;;6.15;4.68;;;;;;;14.95;100.00;101165.28;4988955;28;20022;-63
2023/05/09 09:49:15;;;;;;;6.67;4.50;;;;;;;14.86;100.00;101175.13;4982329;28;20027;-63
2023/05/09 09:51:41;;;;;;;5.50;4.63;;;;;;;14.81;100.00;101170.34;4989597;28;20034;-63
2023/05/09 09:54:08;;;;;;;6.03;4.55;;;;;;;14.82;100.00;101169.25;4987636;28;20030;-63
2023/05/09 09:56:41;;;;;;;6.35;4.70;;;;;;;14.84;100.00;101168.97;5003074;28;20050;-63
2023/05/09 09:59:09;;;;;;;6.60;4.28;;;;;;;14.81;100.00;101159.28;4989413;28;20069;-63
2023/05/09 10:01:34;;;;;;;6.27;4.07;;;;;;;14.81;100.00;101158.44;4990790;28;20456;-62
2023/05/09 10:04:01;;;;;;;5.47;4.05;;;;;;;14.77;100.00;101163.63;4985712;28;20332;-63
2023/05/09 10:06:26;;;;;;;6.47;4.10;;;;;;;14.81;100.00;101153.75;4988626;28;20034;-63
2023/05/09 10:08:52;;;;;;;6.32;4.50;;;;;;;14.84;100.00;101147.69;4991010;28;20035;-63
2023/05/09 10:11:17;;;;;;;4.93;4.25;;;;;;;14.88;100.00;101148.03;4988555;28;20183;-63
2023/05/09 10:13:44;;;;;;;5.18;4.53;;;;;;;14.89;100.00;101152.47;4989413;28;20037;-63
2023/05/09 10:16:10;;;;;;;5.03;4.15;;;;;;;14.90;100.00;101146.72;4993403;28;20106;-63
2023/05/09 10:18:37;;;;;;;6.40;5.10;;;;;;;14.88;100.00;101151.63;4990643;28;20041;-63
2023/05/09 10:21:04;;;;;;;6.18;4.88;;;;;;;14.88;100.00;101146.09;4986329;28;20053;-63
2023/05/09 10:23:31;;;;;;;5.73;4.90;;;;;;;14.89;100.00;101144.19;4990276;28;20050;-63
2023/05/09 10:26:11;;;;;;;5.55;4.63;;;;;;;14.83;100.00;101143.25;4989242;28;20305;-63
2023/05/09 10:28:39;;;;;;;6.55;4.88;;;;;;;14.88;100.00;101139.75;4990823;28;20022;-63
2023/05/09 10:31:25;;;;;;;6.38;4.32;;;;;;;14.87;100.00;101133.38;4989109;28;20034;-63
2023/05/09 10:33:51;;;;;;;5.80;4.80;;;;;;;14.86;100.00;101128.94;4990533;28;20081;-63
2023/05/09 10:36:19;;;;;;;6.13;4.50;;;;;;;14.85;100.00;101127.28;4988896;28;20042;-63
2023/05/09 10:38:45;;;;;;;;;;;;;;;14.92;100.00;101127.94;4991136;28;20032;-63
2023/05/09 10:41:12;;;;;;;6.30;4.57;;;;;;;14.82;100.00;101121.41;4988748;28;19918;-63
2023/05/09 10:43:38;;;;;;;5.93;4.85;;;;;;;14.82;100.00;101121.41;4989140;28;20096;-63
2023/05/09 10:46:04;;;;;;;6.28;4.60;;;;;;;14.87;100.00;101114.03;4980185;28;20034;-63
2023/05/09 10:48:31;;;;;;;6.53;5.32;;;;;;;14.82;100.00;101116.72;5003022;28;20035;-63
2023/05/09 10:50:58;;;;;;;7.03;4.97;;;;;;;14.81;100.00;101114.19;4986400;28;20030;-63
2023/05/09 10:53:43;;;;;;;5.95;4.90;;;;;;;14.78;100.00;101098.94;4987644;28;20033;-63
2023/05/09 10:56:20;;;;;;;6.88;5.35;;;;;;;14.74;100.00;101097.75;4989346;28;20022;-63
2023/05/09 10:58:46;;;;;;;6.88;5.47;;;;;;;14.76;100.00;101101.13;4987752;28;20165;-63
2023/05/09 11:01:12;;;;;;;7.20;4.90;;;;;;;14.76;100.00;101101.97;4988940;28;20113;-63
2023/05/09 11:03:53;;;;;;;6.45;5.10;;;;;;;14.76;100.00;101101.13;4987910;28;20057;-63
2023/05/09 11:06:41;;;;;;;6.70;5.43;;;;;;;14.81;100.00;101098.44;4976728;28;20117;-63